Terminal Aerodrome Forecast
Issued by NWS Grand Junction, CO

Home | Current Version | Previous Version | Text Only | Print | Product List | Glossary On
Versions: 1 2 3 4 5 6 7 8 9 10 11 12 13 14 15 16 17 18 19 20 21 22 23 24 25 26 27 28
000
FTUS45 KGJT 032325
TAFGJT
TAF
KGJT 032325Z 0400/0424 23010G25KT P6SM VCSH SCT080 BKN120
     FM040200 12006KT P6SM SCT120 BKN200
     FM041200 13009KT P6SM SCT120 SCT200
     FM041800 17006KT P6SM VCSH SCT100 BKN200=

USA.gov is the U.S. government's official web portal to all federal, state and local government web resources and services.